Time;durP1;ratioP1;P1;durP2;ratioP2;P2;SDS_P1;SDS_P2;PMS_P1;PMS_P2;Temp;Humidity;BMP_temperature;BMP_pressure;BME280_temperature;BME280_humidity;BME280_pressure;Samples;Min_cycle;Max_cycle;Signal;HPM_P1;HPM_P2
2022/09/03 00:01:17;;;;;;;2.10;1.90;;;12.30;99.90;;;;;;4899848;29;20052;-88
2022/09/03 00:03:54;;;;;;;2.95;2.38;;;12.30;99.90;;;;;;4899706;29;20060;-84
2022/09/03 00:06:39;;;;;;;2.67;2.47;;;12.30;99.90;;;;;;4867742;29;20525;-86
2022/09/03 00:09:23;;;;;;;3.17;2.97;;;12.40;99.90;;;;;;4862885;29;20575;-87
2022/09/03 00:12:18;;;;;;;2.03;1.90;;;12.40;99.90;;;;;;4859365;29;20056;-86
2022/09/03 00:15:21;;;;;;;5.50;2.60;;;12.40;99.90;;;;;;4827856;29;20410;-85
2022/09/03 00:18:01;;;;;;;2.78;2.50;;;12.40;99.90;;;;;;4859450;29;20058;-86
2022/09/03 00:20:41;;;;;;;3.13;2.58;;;12.40;99.90;;;;;;4859022;29;20779;-85
2022/09/03 00:23:21;;;;;;;2.65;2.33;;;12.40;99.90;;;;;;4858473;29;20464;-85
2022/09/03 00:25:59;;;;;;;4.43;2.70;;;12.40;99.90;;;;;;4859570;29;20053;-86
2022/09/03 00:28:35;;;;;;;2.38;2.10;;;12.40;99.90;;;;;;4858474;29;20053;-86
2022/09/03 00:31:37;;;;;;;4.38;2.72;;;12.40;99.90;;;;;;4827911;29;20053;-85
2022/09/03 00:34:40;;;;;;;2.45;2.28;;;12.40;99.90;;;;;;4826122;29;20056;-86
2022/09/03 00:37:09;;;;;;;3.63;2.40;;;12.40;99.90;;;;;;4858990;29;20050;-86
2022/09/03 00:39:43;;;;;;;3.17;2.33;;;12.30;99.90;;;;;;4825983;29;20061;-77
2022/09/03 00:42:24;;;;;;;3.03;2.67;;;12.40;99.90;;;;;;4859632;29;20054;-84
2022/09/03 00:45:13;;;;;;;5.97;2.63;;;12.40;99.90;;;;;;4858780;29;20061;-86
2022/09/03 00:47:50;;;;;;;2.55;2.40;;;12.30;99.90;;;;;;4841920;29;20061;-81
2022/09/03 00:50:52;;;;;;;2.58;2.33;;;12.30;99.90;;;;;;4842355;29;20053;-82
2022/09/03 00:53:30;;;;;;;2.95;2.55;;;12.30;99.90;;;;;;4869275;29;20040;-81
2022/09/03 00:56:33;;;;;;;2.58;2.47;;;12.30;99.90;;;;;;4896080;29;20048;-85
2022/09/03 00:59:14;;;;;;;3.42;2.75;;;12.30;99.90;;;;;;4851652;29;20053;-86
2022/09/03 01:01:48;;;;;;;3.78;2.08;;;12.30;99.90;;;;;;4878849;29;20536;-86
2022/09/03 01:04:38;;;;;;;2.42;2.25;;;12.30;99.90;;;;;;4863677;29;20040;-85
2022/09/03 01:07:17;;;;;;;3.00;2.80;;;12.20;99.90;;;;;;4864420;29;20483;-87
2022/09/03 01:10:11;;;;;;;8.60;2.30;;;12.20;99.90;;;;;;4894795;29;20049;-85
2022/09/03 01:12:57;;;;;;;2.72;2.20;;;12.10;99.90;;;;;;4842118;29;20514;-85
2022/09/03 01:15:47;;;;;;;2.90;1.90;;;12.20;99.90;;;;;;4879352;29;20514;-86
2022/09/03 01:18:21;;;;;;;2.53;2.33;;;12.20;99.90;;;;;;4874150;29;20044;-84
2022/09/03 01:21:08;;;;;;;2.55;2.45;;;12.10;99.90;;;;;;4847780;29;20052;-85
2022/09/03 01:24:02;;;;;;;7.55;3.60;;;12.20;99.90;;;;;;4877251;29;20422;-85
2022/09/03 01:26:50;;;;;;;2.30;2.20;;;12.20;99.90;;;;;;4895949;29;20056;-86
2022/09/03 01:29:29;;;;;;;2.70;2.50;;;12.20;99.90;;;;;;4894765;29;20062;-84
2022/09/03 01:32:18;;;;;;;2.95;2.70;;;12.20;99.90;;;;;;4841736;29;20492;-84
2022/09/03 01:34:57;;;;;;;2.83;2.63;;;12.10;99.90;;;;;;4841863;29;20065;-85
2022/09/03 01:37:50;;;;;;;4.45;2.90;;;12.10;99.90;;;;;;4840267;29;20412;-86
2022/09/03 01:40:32;;;;;;;4.30;2.35;;;12.10;99.90;;;;;;4858582;29;20045;-86
2022/09/03 01:43:09;;;;;;;3.03;2.83;;;12.10;99.90;;;;;;4841850;29;20053;-85
2022/09/03 01:45:47;;;;;;;2.85;2.50;;;12.10;99.90;;;;;;4825882;29;20053;-84
2022/09/03 01:48:39;;;;;;;2.67;2.30;;;12.10;99.90;;;;;;4856907;29;20053;-86
2022/09/03 01:51:14;;;;;;;2.72;2.47;;;12.10;99.90;;;;;;4811478;29;20060;-83
2022/09/03 01:54:10;;;;;;;2.40;2.28;;;12.10;99.90;;;;;;4857245;29;20049;-83
2022/09/03 01:57:27;;;;;;;2.50;2.30;;;12.10;99.90;;;;;;4878213;29;20044;-86
2022/09/03 02:00:19;;;;;;;3.42;2.25;;;12.10;99.90;;;;;;4894099;29;20052;-85
2022/09/03 02:02:50;;;;;;;6.03;4.68;;;12.00;99.90;;;;;;4895398;29;20052;-86
2022/09/03 02:05:23;;;;;;;2.47;2.28;;;12.00;99.90;;;;;;4862539;29;20044;-85
2022/09/03 02:08:08;;;;;;;3.55;3.35;;;12.00;99.90;;;;;;4856850;29;20319;-85
2022/09/03 02:10:55;;;;;;;3.97;2.67;;;12.00;99.90;;;;;;4858069;29;20403;-85
2022/09/03 02:13:39;;;;;;;2.53;2.30;;;12.10;99.90;;;;;;4840944;29;20062;-85
2022/09/03 02:16:15;;;;;;;2.85;2.65;;;12.10;99.90;;;;;;4857485;29;20054;-84
2022/09/03 02:18:50;;;;;;;3.72;3.15;;;12.10;99.90;;;;;;4825224;29;20419;-85
2022/09/03 02:21:21;;;;;;;2.90;2.70;;;12.10;99.90;;;;;;4857096;29;20062;-77
2022/09/03 02:23:49;;;;;;;3.58;3.28;;;12.00;99.90;;;;;;4856158;29;20038;-77
2022/09/03 02:26:22;;;;;;;2.70;2.50;;;12.00;99.90;;;;;;4857970;29;20060;-77
2022/09/03 02:28:52;;;;;;;3.00;2.80;;;12.00;99.90;;;;;;4857106;29;20086;-79
2022/09/03 02:31:20;;;;;;;3.58;3.25;;;12.10;99.90;;;;;;4840678;29;20050;-86
2022/09/03 02:33:49;;;;;;;3.65;3.40;;;11.80;99.90;;;;;;4855063;29;20061;-85
2022/09/03 02:36:24;;;;;;;2.95;2.65;;;12.00;99.90;;;;;;4825223;29;20526;-84
2022/09/03 02:38:54;;;;;;;4.75;3.17;;;12.00;99.90;;;;;;4823990;29;20057;-85
2022/09/03 02:41:22;;;;;;;3.97;2.70;;;12.00;99.90;;;;;;4840599;29;20045;-85
2022/09/03 02:43:57;;;;;;;3.53;3.33;;;12.10;99.90;;;;;;4840414;29;20507;-85
2022/09/03 02:46:33;;;;;;;3.30;3.05;;;12.00;99.90;;;;;;4857439;29;20049;-85
2022/09/03 02:49:01;;;;;;;2.45;2.25;;;12.00;99.90;;;;;;4839558;29;20042;-85
2022/09/03 02:51:37;;;;;;;4.18;3.00;;;12.00;99.90;;;;;;4856658;29;20042;-85
2022/09/03 02:54:05;;;;;;;4.18;3.88;;;12.00;99.90;;;;;;4862733;29;20052;-83
2022/09/03 02:56:33;;;;;;;4.60;2.90;;;12.00;99.90;;;;;;4861760;29;20510;-85
2022/09/03 02:59:04;;;;;;;3.30;2.95;;;12.00;99.90;;;;;;4877319;29;20049;-84
2022/09/03 03:01:32;;;;;;;2.93;2.63;;;12.00;99.90;;;;;;4877638;29;20045;-84
2022/09/03 03:04:00;;;;;;;3.30;3.08;;;12.00;99.90;;;;;;4876842;29;20052;-76
2022/09/03 03:06:27;;;;;;;4.00;3.03;;;12.00;99.90;;;;;;4894914;29;20419;-76
2022/09/03 03:08:56;;;;;;;5.60;2.92;;;12.00;99.90;;;;;;4875165;29;20052;-75
2022/09/03 03:11:25;;;;;;;3.75;2.88;;;12.00;99.90;;;;;;4862497;29;20079;-76
2022/09/03 03:13:52;;;;;;;6.32;5.82;;;11.90;99.90;;;;;;4893635;29;20049;-77
2022/09/03 03:16:21;;;;;;;5.03;3.22;;;11.90;99.90;;;;;;4877315;29;20044;-85
2022/09/03 03:18:51;;;;;;;3.05;2.80;;;11.80;99.90;;;;;;4876790;29;20049;-84
2022/09/03 03:21:19;;;;;;;2.50;2.30;;;11.80;99.90;;;;;;4876944;29;20494;-84
2022/09/03 03:23:46;;;;;;;3.47;3.17;;;11.80;99.90;;;;;;4892548;29;20399;-84
2022/09/03 03:26:20;;;;;;;4.35;2.88;;;11.80;99.90;;;;;;4894364;29;20044;-86
2022/09/03 03:28:49;;;;;;;3.05;2.80;;;11.70;99.90;;;;;;4893311;29;20095;-83
2022/09/03 03:31:19;;;;;;;3.88;3.58;;;11.70;99.90;;;;;;4864875;29;20364;-86
2022/09/03 03:33:55;;;;;;;3.78;3.38;;;11.70;99.90;;;;;;4855904;29;20433;-83
2022/09/03 03:36:25;;;;;;;3.45;3.20;;;11.70;99.90;;;;;;4836488;29;20046;-84
2022/09/03 03:38:55;;;;;;;3.90;3.55;;;11.70;99.90;;;;;;4836750;29;20053;-85
2022/09/03 03:41:34;;;;;;;5.38;3.35;;;11.70;99.90;;;;;;4821500;29;20050;-83
2022/09/03 03:44:05;;;;;;;3.67;3.38;;;11.70;99.90;;;;;;4823537;29;20041;-84
2022/09/03 03:46:35;;;;;;;3.40;3.22;;;11.70;99.90;;;;;;4842027;29;20049;-84
2022/09/03 03:49:05;;;;;;;4.03;3.17;;;11.70;99.90;;;;;;4839805;29;20042;-84
2022/09/03 03:51:34;;;;;;;4.30;3.28;;;11.60;99.90;;;;;;4840349;29;20046;-84
2022/09/03 03:54:02;;;;;;;3.10;2.83;;;11.60;99.90;;;;;;4846865;29;20049;-83
2022/09/03 03:56:33;;;;;;;3.25;2.95;;;11.60;99.90;;;;;;4878295;29;20052;-85
2022/09/03 03:59:01;;;;;;;3.67;3.33;;;11.60;99.90;;;;;;4878042;29;20049;-85
2022/09/03 04:01:29;;;;;;;3.17;2.95;;;11.60;99.90;;;;;;4878274;29;20041;-84
2022/09/03 04:03:59;;;;;;;4.65;3.20;;;11.50;99.90;;;;;;4876564;29;20056;-84
2022/09/03 04:06:27;;;;;;;3.28;3.08;;;11.50;99.90;;;;;;4861819;29;20053;-84
2022/09/03 04:08:55;;;;;;;4.72;4.32;;;11.50;99.90;;;;;;4856065;29;20042;-86
2022/09/03 04:11:24;;;;;;;4.38;3.63;;;11.40;99.90;;;;;;4840320;29;20341;-85
2022/09/03 04:13:52;;;;;;;4.88;3.40;;;11.40;99.90;;;;;;4854846;29;20061;-83
2022/09/03 04:16:26;;;;;;;3.15;2.95;;;11.40;99.90;;;;;;4824668;29;20057;-84
2022/09/03 04:18:55;;;;;;;4.32;3.42;;;11.40;99.90;;;;;;4839353;29;20515;-83
2022/09/03 04:21:26;;;;;;;2.88;2.67;;;11.30;99.90;;;;;;4839665;29;20063;-84
2022/09/03 04:23:56;;;;;;;6.63;3.00;;;11.30;99.90;;;;;;4822831;29;20408;-85
2022/09/03 04:26:30;;;;;;;3.20;2.80;;;11.30;99.90;;;;;;4839854;29;20370;-84
2022/09/03 04:29:08;;;;;;;7.53;4.38;;;11.30;99.90;;;;;;4840106;29;20497;-85
2022/09/03 04:31:37;;;;;;;3.33;3.08;;;11.20;99.90;;;;;;4824269;29;20066;-84
2022/09/03 04:34:06;;;;;;;3.67;3.35;;;11.20;99.90;;;;;;4839295;29;20441;-85
2022/09/03 04:36:36;;;;;;;3.58;3.25;;;11.20;99.90;;;;;;4839196;29;20424;-85
2022/09/03 04:39:03;;;;;;;5.50;3.28;;;11.20;99.90;;;;;;4822216;29;20057;-84
2022/09/03 04:41:31;;;;;;;5.80;4.03;;;11.20;99.90;;;;;;4839321;29;20063;-84
2022/09/03 04:43:59;;;;;;;3.15;2.95;;;11.20;99.90;;;;;;4840623;29;20053;-84
2022/09/03 04:46:38;;;;;;;3.53;3.22;;;11.10;99.90;;;;;;4841040;29;20050;-84
2022/09/03 04:49:08;;;;;;;5.10;4.70;;;11.10;99.90;;;;;;4839713;29;20050;-84
2022/09/03 04:51:37;;;;;;;4.53;4.13;;;11.10;99.90;;;;;;4839388;29;20049;-84
2022/09/03 04:54:05;;;;;;;4.43;4.03;;;11.10;99.90;;;;;;4862541;29;20101;-84
2022/09/03 04:56:34;;;;;;;2.95;2.70;;;11.00;99.90;;;;;;4860778;29;20045;-84
2022/09/03 04:59:07;;;;;;;3.40;3.08;;;11.10;99.90;;;;;;4877087;29;20057;-83
2022/09/03 05:01:38;;;;;;;3.40;3.10;;;11.10;99.90;;;;;;4876029;29;20046;-85
2022/09/03 05:04:07;;;;;;;10.48;4.78;;;11.10;99.90;;;;;;4875695;29;20052;-84
2022/09/03 05:06:36;;;;;;;5.97;3.60;;;11.10;99.90;;;;;;4877752;29;20048;-83
2022/09/03 05:09:04;;;;;;;4.72;4.32;;;11.20;99.90;;;;;;4875008;29;20049;-84
2022/09/03 05:11:32;;;;;;;4.38;4.00;;;11.20;99.90;;;;;;4875584;29;20053;-85
2022/09/03 05:14:00;;;;;;;6.10;4.07;;;11.20;99.90;;;;;;4877794;29;20065;-84
2022/09/03 05:16:29;;;;;;;3.60;3.30;;;11.10;99.90;;;;;;4877057;29;20049;-85
2022/09/03 05:18:59;;;;;;;4.13;3.83;;;11.20;99.90;;;;;;4876527;29;20044;-85
2022/09/03 05:21:28;;;;;;;3.10;2.85;;;11.20;99.90;;;;;;4876847;29;20045;-84
2022/09/03 05:23:58;;;;;;;4.35;3.83;;;11.20;99.90;;;;;;4875445;29;20041;-84
2022/09/03 05:26:29;;;;;;;5.70;3.10;;;11.30;99.90;;;;;;4844931;29;20059;-85
2022/09/03 05:29:07;;;;;;;4.18;3.88;;;11.30;99.90;;;;;;4859328;29;20045;-83
2022/09/03 05:31:38;;;;;;;8.00;3.85;;;11.40;99.90;;;;;;4824708;29;20500;-84
2022/09/03 05:34:06;;;;;;;3.40;3.10;;;11.40;99.90;;;;;;4839680;29;20057;-85
2022/09/03 05:36:36;;;;;;;4.53;4.13;;;11.50;99.90;;;;;;4838024;29;20085;-84
2022/09/03 05:39:05;;;;;;;3.50;3.30;;;11.50;99.90;;;;;;4837926;29;20057;-85
2022/09/03 05:41:33;;;;;;;6.07;4.55;;;11.60;99.90;;;;;;4838255;29;20046;-84
2022/09/03 05:44:02;;;;;;;3.63;2.90;;;11.70;99.90;;;;;;4839544;29;20425;-85
2022/09/03 05:46:32;;;;;;;3.40;3.17;;;11.70;99.90;;;;;;4839972;29;20408;-83
2022/09/03 05:49:02;;;;;;;6.95;3.83;;;11.80;99.90;;;;;;4806831;29;20054;-84
2022/09/03 05:51:31;;;;;;;5.55;5.05;;;11.90;99.90;;;;;;4837927;29;20062;-85
2022/09/03 05:53:59;;;;;;;3.33;3.13;;;11.90;99.90;;;;;;4859316;29;20045;-83
2022/09/03 05:56:29;;;;;;;3.72;3.20;;;12.00;99.90;;;;;;4859768;29;20049;-85
2022/09/03 05:59:00;;;;;;;4.90;4.50;;;12.20;99.90;;;;;;4876233;29;20049;-85
2022/09/03 06:01:34;;;;;;;4.70;4.10;;;12.40;99.90;;;;;;4875755;29;20499;-85
2022/09/03 06:04:07;;;;;;;4.03;3.70;;;12.60;99.90;;;;;;4874588;29;20465;-84
2022/09/03 06:06:37;;;;;;;4.18;3.90;;;12.70;99.90;;;;;;4874674;29;20045;-87
2022/09/03 06:09:45;;;;;;;3.47;3.25;;;12.80;99.90;;;;;;4842974;29;20046;-87
2022/09/03 06:12:17;;;;;;;3.97;3.67;;;12.60;99.90;;;;;;4750845;29;20068;-87
2022/09/03 06:14:45;;;;;;;4.63;3.75;;;12.60;99.90;;;;;;4838200;29;20045;-86
2022/09/03 06:17:13;;;;;;;4.53;4.22;;;12.70;99.90;;;;;;4822905;29;20042;-85
2022/09/03 06:19:41;;;;;;;6.97;4.28;;;12.80;99.90;;;;;;4836914;29;20382;-86
2022/09/03 06:22:09;;;;;;;3.83;3.47;;;12.90;99.90;;;;;;4822848;29;20061;-86
2022/09/03 06:24:37;;;;;;;5.22;4.30;;;12.90;99.90;;;;;;4835828;29;20054;-86
2022/09/03 06:27:05;;;;;;;3.92;3.45;;;13.00;99.90;;;;;;4823072;29;20057;-85
2022/09/03 06:29:34;;;;;;;4.10;3.80;;;13.20;99.90;;;;;;4821327;29;20065;-87
2022/09/03 06:32:03;;;;;;;4.35;3.38;;;13.30;99.90;;;;;;4807388;29;20408;-86
2022/09/03 06:34:31;;;;;;;4.97;4.57;;;13.40;99.90;;;;;;4837509;29;20420;-84
2022/09/03 06:36:58;;;;;;;6.95;4.28;;;13.70;99.90;;;;;;4837073;29;20478;-86
2022/09/03 06:39:26;;;;;;;7.10;3.33;;;13.90;99.90;;;;;;4820532;29;20050;-85
2022/09/03 06:41:54;;;;;;;4.10;3.75;;;14.20;99.90;;;;;;4836874;29;20058;-86
2022/09/03 06:44:33;;;;;;;3.97;3.63;;;14.40;99.90;;;;;;4823683;29;20389;-86
2022/09/03 06:47:01;;;;;;;4.35;3.95;;;14.40;99.90;;;;;;4837638;29;20053;-87
2022/09/03 06:49:30;;;;;;;3.83;3.05;;;14.40;99.90;;;;;;4837605;29;20060;-86
2022/09/03 06:51:58;;;;;;;3.70;3.33;;;14.30;99.90;;;;;;4842071;29;20053;-85
2022/09/03 06:59:30;;;;;;;3.17;2.97;;;14.40;99.90;;;;;;4769363;29;20051;-86
2022/09/03 07:02:40;;;;;;;3.35;3.15;;;14.50;99.90;;;;;;4768268;29;20203;-86
2022/09/03 07:05:11;;;;;;;3.75;2.65;;;14.30;99.90;;;;;;4771812;29;20504;-85
2022/09/03 07:07:39;;;;;;;2.90;2.70;;;14.30;99.90;;;;;;4731949;29;20083;-86
2022/09/03 07:10:08;;;;;;;3.72;3.45;;;14.30;99.90;;;;;;4806281;29;20568;-84
2022/09/03 07:13:49;;;;;;;5.22;2.95;;;14.40;99.90;;;;;;4827944;29;20049;-86
2022/09/03 07:16:26;;;;;;;4.10;3.83;;;14.50;99.90;;;;;;4814282;29;20054;-86
2022/09/03 07:18:55;;;;;;;6.80;3.67;;;14.60;99.90;;;;;;4823272;29;20065;-85
2022/09/03 07:21:29;;;;;;;3.05;2.75;;;14.70;99.90;;;;;;4823945;29;20072;-87
2022/09/03 07:23:57;;;;;;;3.30;3.00;;;14.80;99.90;;;;;;4822160;29;20046;-86
2022/09/03 07:26:28;;;;;;;4.38;3.95;;;15.00;99.90;;;;;;4824312;29;20489;-86
2022/09/03 07:28:56;;;;;;;5.82;4.93;;;15.10;99.90;;;;;;4838368;29;20053;-85
2022/09/03 07:31:36;;;;;;;4.40;3.33;;;15.20;99.90;;;;;;4778508;29;20066;-87
2022/09/03 07:34:06;;;;;;;5.00;3.92;;;15.30;99.90;;;;;;4743342;29;20051;-86
2022/09/03 07:36:40;;;;;;;4.93;3.92;;;15.40;99.90;;;;;;4817116;29;20057;-86
2022/09/03 07:39:12;;;;;;;3.72;3.50;;;15.70;99.90;;;;;;4823218;29;20058;-86
2022/09/03 07:41:44;;;;;;;4.20;3.90;;;15.80;99.90;;;;;;4839436;29;20080;-85
2022/09/03 07:44:14;;;;;;;5.75;3.38;;;16.00;99.90;;;;;;4824969;29;20061;-85
2022/09/03 07:46:44;;;;;;;3.78;3.58;;;16.30;99.90;;;;;;4825415;29;20069;-85
2022/09/03 07:49:12;;;;;;;4.15;3.75;;;16.70;99.90;;;;;;4823913;29;20053;-86
2022/09/03 07:51:40;;;;;;;4.35;3.95;;;16.70;99.90;;;;;;4840019;29;20050;-86
2022/09/03 07:54:09;;;;;;;4.38;3.97;;;16.60;99.90;;;;;;4863001;29;20076;-86
2022/09/03 07:56:39;;;;;;;3.92;3.53;;;16.60;99.90;;;;;;4861738;29;20057;-86
2022/09/03 07:59:08;;;;;;;3.95;3.63;;;16.60;99.90;;;;;;4878080;29;20053;-86
2022/09/03 08:01:36;;;;;;;3.30;2.70;;;16.60;99.90;;;;;;4876942;29;20056;-87
2022/09/03 08:04:09;;;;;;;4.97;4.55;;;16.60;99.90;;;;;;4876546;29;20496;-86
2022/09/03 08:06:38;;;;;;;5.07;3.47;;;16.70;99.90;;;;;;4877341;29;20049;-84
2022/09/03 08:09:10;;;;;;;3.33;3.05;;;16.90;99.90;;;;;;4845061;29;20045;-86
2022/09/03 08:11:40;;;;;;;3.78;3.47;;;17.10;99.90;;;;;;4845140;29;20049;-86
2022/09/03 08:14:10;;;;;;;4.25;3.75;;;17.30;99.90;;;;;;4859644;29;20054;-87
2022/09/03 08:16:43;;;;;;;3.00;2.80;;;17.40;99.90;;;;;;4827474;29;20270;-86
2022/09/03 08:19:12;;;;;;;4.40;4.03;;;17.40;99.90;;;;;;4857513;29;20053;-86
2022/09/03 08:21:40;;;;;;;3.65;3.35;;;17.50;99.90;;;;;;4857826;29;20057;-87
2022/09/03 08:24:16;;;;;;;4.50;3.45;;;17.70;99.90;;;;;;4856427;29;20165;-87
2022/09/03 08:26:44;;;;;;;3.00;2.80;;;17.80;99.90;;;;;;4842976;29;20069;-86
2022/09/03 08:29:19;;;;;;;3.40;3.20;;;18.00;99.90;;;;;;4857486;29;20054;-86
2022/09/03 08:31:47;;;;;;;6.82;2.70;;;18.10;99.90;;;;;;4858294;29;20060;-86
2022/09/03 08:34:16;;;;;;;3.80;3.40;;;18.00;99.90;;;;;;4857841;29;20053;-85
2022/09/03 08:36:45;;;;;;;3.67;3.40;;;17.90;99.90;;;;;;4857720;29;20526;-84
2022/09/03 08:39:14;;;;;;;3.33;3.08;;;17.80;99.90;;;;;;4855363;29;20397;-87
2022/09/03 08:42:07;;;;;;;4.38;3.15;;;17.70;99.90;;;;;;4842608;29;20354;-84
2022/09/03 08:44:48;;;;;;;6.65;3.20;;;17.50;99.90;;;;;;4857602;29;20053;-85
2022/09/03 08:47:26;;;;;;;4.35;3.85;;;17.60;99.90;;;;;;4842215;29;20526;-85
2022/09/03 08:50:01;;;;;;;3.95;3.25;;;17.70;99.90;;;;;;4857953;29;20064;-85
2022/09/03 08:52:32;;;;;;;2.72;2.53;;;17.90;99.90;;;;;;4837056;29;20049;-84
2022/09/03 08:55:24;;;;;;;3.55;3.25;;;18.10;99.90;;;;;;4824151;29;20076;-86
2022/09/03 08:58:14;;;;;;;2.95;2.75;;;18.20;99.90;;;;;;4838590;29;20046;-85
2022/09/03 09:00:55;;;;;;;4.40;2.95;;;18.10;99.90;;;;;;4823962;29;20057;-80
2022/09/03 09:03:35;;;;;;;3.22;2.80;;;18.10;99.90;;;;;;4840573;29;20050;-80
2022/09/03 09:06:32;;;;;;;3.42;2.90;;;17.90;99.90;;;;;;4840893;29;20057;-83
2022/09/03 09:09:27;;;;;;;2.65;2.50;;;18.00;99.90;;;;;;4835200;29;20061;-83
2022/09/03 09:12:15;;;;;;;2.95;2.65;;;17.90;99.90;;;;;;4823549;29;20046;-83
2022/09/03 09:15:02;;;;;;;3.03;2.72;;;18.10;99.90;;;;;;4838900;29;20058;-83
2022/09/03 09:17:44;;;;;;;2.97;1.92;;;18.10;99.90;;;;;;4839452;29;20046;-83
2022/09/03 09:20:23;;;;;;;2.75;2.00;;;18.10;99.90;;;;;;4837828;29;20050;-83
2022/09/03 09:23:08;;;;;;;3.70;2.70;;;18.10;99.90;;;;;;4838925;29;20497;-83
2022/09/03 09:25:47;;;;;;;12.18;2.50;;;18.00;99.90;;;;;;4823637;29;20500;-83
2022/09/03 09:28:21;;;;;;;2.50;2.30;;;17.90;99.90;;;;;;4808059;29;20050;-83
2022/09/03 09:30:52;;;;;;;1.98;1.73;;;17.90;99.90;;;;;;4839976;29;20061;-83
2022/09/03 09:33:21;;;;;;;2.20;2.00;;;18.00;99.90;;;;;;4839440;29;20057;-83
2022/09/03 09:35:49;;;;;;;3.95;2.03;;;18.10;99.90;;;;;;4822697;29;20054;-83
2022/09/03 09:38:28;;;;;;;2.13;1.95;;;18.20;99.90;;;;;;4837744;29;20064;-82
2022/09/03 09:41:07;;;;;;;1.40;1.30;;;18.10;99.90;;;;;;4837946;29;20050;-84
2022/09/03 09:43:35;;;;;;;6.40;2.20;;;18.10;99.90;;;;;;4823212;29;20057;-84
2022/09/03 09:46:21;;;;;;;4.25;1.75;;;18.10;99.90;;;;;;4838678;29;20042;-82
2022/09/03 09:48:55;;;;;;;1.95;1.85;;;18.30;99.90;;;;;;4837100;29;20049;-83
2022/09/03 09:51:25;;;;;;;2.35;1.73;;;18.30;99.90;;;;;;4838629;29;20057;-83
2022/09/03 09:54:17;;;;;;;1.70;1.55;;;18.30;99.90;;;;;;4856732;29;20071;-83
2022/09/03 09:56:46;;;;;;;1.55;1.45;;;18.60;99.90;;;;;;4876173;29;20056;-83
2022/09/03 09:59:14;;;;;;;1.70;1.60;;;18.60;99.90;;;;;;4859086;29;20053;-82
2022/09/03 10:01:44;;;;;;;2.17;1.83;;;18.60;99.90;;;;;;4874696;29;20053;-84
2022/09/03 10:04:28;;;;;;;2.17;1.98;;;18.50;99.90;;;;;;4874582;29;20559;-83
2022/09/03 10:07:23;;;;;;;3.35;1.88;;;18.60;99.90;;;;;;4875177;29;20072;-83
2022/09/03 10:10:21;;;;;;;1.50;1.40;;;18.60;99.90;;;;;;4839583;29;20060;-83
2022/09/03 10:13:00;;;;;;;2.00;1.85;;;18.70;99.90;;;;;;4831058;29;20480;-82
2022/09/03 10:15:32;;;;;;;2.30;1.60;;;18.70;99.90;;;;;;4822920;29;20400;-83
2022/09/03 10:18:31;;;;;;;2.33;1.55;;;18.80;99.90;;;;;;4838310;29;20555;-83
2022/09/03 10:21:21;;;;;;;1.30;1.20;;;18.90;99.90;;;;;;4838822;29;20053;-83
2022/09/03 10:24:26;;;;;;;1.60;1.50;;;19.00;99.90;;;;;;4836099;29;20042;-83
2022/09/03 10:26:54;;;;;;;1.70;1.60;;;19.10;99.90;;;;;;4839265;29;20045;-86
2022/09/03 10:29:28;;;;;;;1.90;1.55;;;19.30;99.90;;;;;;4852043;29;20057;-83
2022/09/03 10:32:22;;;;;;;1.80;1.65;;;19.50;99.90;;;;;;4837436;29;20050;-82
2022/09/03 10:35:27;;;;;;;2.20;2.10;;;19.90;99.90;;;;;;4854722;29;20053;-83
2022/09/03 10:38:05;;;;;;;1.90;1.80;;;20.00;99.90;;;;;;4838388;29;20049;-84
2022/09/03 10:40:55;;;;;;;1.50;1.40;;;19.90;99.90;;;;;;4856570;29;20510;-83
2022/09/03 10:44:01;;;;;;;1.90;1.80;;;19.70;99.90;;;;;;4840977;29;20057;-81
2022/09/03 10:46:49;;;;;;;1.63;1.52;;;19.80;99.90;;;;;;4837827;29;20061;-84
2022/09/03 10:49:51;;;;;;;1.52;1.42;;;19.80;99.90;;;;;;4839106;29;20049;-84
2022/09/03 10:52:30;;;;;;;8.38;2.78;;;20.00;99.90;;;;;;4846056;29;20046;-84
2022/09/03 10:55:31;;;;;;;1.88;1.77;;;20.10;99.90;;;;;;4840723;29;20508;-84
2022/09/03 10:58:10;;;;;;;;;;;20.30;99.90;;;;;;4855438;29;20060;-83
2022/09/03 11:00:51;;;;;;;1.13;1.10;;;20.40;99.90;;;;;;4856629;29;20299;-84
2022/09/03 11:03:33;;;;;;;2.28;2.08;;;20.20;99.90;;;;;;4856877;29;20049;-84
2022/09/03 11:06:11;;;;;;;2.67;2.17;;;20.10;99.90;;;;;;4854456;29;20423;-83
2022/09/03 11:09:16;;;;;;;2.25;2.00;;;20.20;99.90;;;;;;4853524;29;20072;-84
2022/09/03 11:12:00;;;;;;;1.65;1.52;;;20.40;99.90;;;;;;4848214;29;20058;-84
2022/09/03 11:14:43;;;;;;;2.17;1.55;;;20.60;99.90;;;;;;4840506;29;20053;-84
2022/09/03 11:17:25;;;;;;;3.45;2.05;;;20.90;99.90;;;;;;4839838;29;20038;-83
2022/09/03 11:20:06;;;;;;;1.95;1.85;;;21.20;99.90;;;;;;4856135;29;20045;-84
2022/09/03 11:22:34;;;;;;;2.65;1.98;;;21.20;99.90;;;;;;4855357;29;20065;-84
2022/09/03 11:25:06;;;;;;;1.30;1.20;;;21.20;99.90;;;;;;4855153;29;20046;-83
2022/09/03 11:28:02;;;;;;;2.03;1.85;;;21.00;99.90;;;;;;4839456;29;20049;-84
2022/09/03 11:30:39;;;;;;;;;;;21.00;99.90;;;;;;4857168;29;20049;-84
2022/09/03 11:33:10;;;;;;;1.33;1.23;;;21.00;99.90;;;;;;4839449;29;19928;-83
2022/09/03 11:35:41;;;;;;;1.50;1.40;;;21.00;99.90;;;;;;4839697;29;20058;-83
2022/09/03 11:38:19;;;;;;;1.40;1.30;;;20.80;99.90;;;;;;4823135;29;20045;-84
2022/09/03 11:40:59;;;;;;;1.55;1.45;;;20.90;99.90;;;;;;4839808;29;20060;-84
2022/09/03 11:43:31;;;;;;;1.00;1.00;;;21.00;99.90;;;;;;4856280;29;20484;-83
2022/09/03 11:46:22;;;;;;;2.45;1.60;;;21.10;99.90;;;;;;4857002;29;20046;-83
2022/09/03 11:48:54;;;;;;;1.73;1.63;;;21.10;99.90;;;;;;4839214;29;20049;-84
2022/09/03 11:51:34;;;;;;;1.00;1.00;;;21.00;99.90;;;;;;4840370;29;20045;-84
2022/09/03 11:54:06;;;;;;;1.83;1.73;;;21.10;99.90;;;;;;4845877;29;20055;-84
2022/09/03 11:56:36;;;;;;;2.55;2.35;;;21.10;99.90;;;;;;4861544;29;20052;-84
2022/09/03 11:59:15;;;;;;;1.10;1.10;;;21.10;99.90;;;;;;4893649;29;20055;-84
2022/09/03 12:01:59;;;;;;;1.17;1.05;;;21.00;99.90;;;;;;4876048;29;20055;-84
2022/09/03 12:05:02;;;;;;;3.53;1.88;;;21.10;99.90;;;;;;4877033;29;20543;-83
2022/09/03 12:07:46;;;;;;;1.90;1.70;;;21.40;99.90;;;;;;4895298;29;20067;-83
2022/09/03 12:10:57;;;;;;;1.65;1.55;;;21.60;99.90;;;;;;4859321;29;20076;-84
2022/09/03 12:13:32;;;;;;;1.65;1.55;;;21.60;99.90;;;;;;4842892;29;20057;-84
2022/09/03 12:16:29;;;;;;;1.88;1.77;;;21.60;99.90;;;;;;4859409;29;20492;-82
2022/09/03 12:19:06;;;;;;;1.40;1.30;;;21.60;99.90;;;;;;4842826;29;20463;-83
2022/09/03 12:21:39;;;;;;;2.20;2.00;;;21.50;99.90;;;;;;4842528;29;20046;-83
2022/09/03 12:24:18;;;;;;;1.95;1.63;;;21.30;99.90;;;;;;4842313;29;20053;-83
2022/09/03 12:26:46;;;;;;;1.90;1.57;;;21.20;99.90;;;;;;4859761;29;20053;-83
2022/09/03 12:29:22;;;;;;;1.55;1.45;;;21.20;99.90;;;;;;4858483;29;20116;-82
2022/09/03 12:31:55;;;;;;;1.45;1.35;;;21.10;99.90;;;;;;4842485;29;20060;-83
2022/09/03 12:34:25;;;;;;;3.25;2.30;;;21.10;99.90;;;;;;4858975;29;20054;-83
2022/09/03 12:36:53;;;;;;;1.90;1.80;;;21.20;99.90;;;;;;4842180;29;20064;-83
2022/09/03 12:39:26;;;;;;;1.70;1.60;;;21.30;99.90;;;;;;4857099;29;20049;-83
2022/09/03 12:42:21;;;;;;;1.60;1.50;;;21.60;99.90;;;;;;4825574;29;20428;-83
2022/09/03 12:44:52;;;;;;;1.90;1.80;;;21.80;99.90;;;;;;4827056;29;20049;-83
2022/09/03 12:47:23;;;;;;;1.65;1.55;;;22.00;99.90;;;;;;4827354;29;20290;-86
2022/09/03 12:50:19;;;;;;;1.95;1.85;;;22.20;99.90;;;;;;4839955;29;20060;-85
2022/09/03 12:53:00;;;;;;;2.67;2.47;;;22.20;99.90;;;;;;4854940;29;20053;-83
2022/09/03 12:55:41;;;;;;;1.98;1.77;;;22.30;99.90;;;;;;4878989;29;20064;-85
2022/09/03 12:58:22;;;;;;;2.40;2.20;;;22.20;99.90;;;;;;4896080;29;20048;-84
2022/09/03 13:01:14;;;;;;;1.98;1.88;;;22.10;99.90;;;;;;4879089;29;20049;-85
2022/09/03 13:04:02;;;;;;;2.03;1.90;;;22.20;99.90;;;;;;4848099;29;20060;-85
2022/09/03 13:06:50;;;;;;;2.10;1.73;;;22.40;99.90;;;;;;4879770;29;20075;-85
2022/09/03 13:09:28;;;;;;;2.05;1.80;;;22.30;99.90;;;;;;4861654;29;20053;-86
2022/09/03 13:11:58;;;;;;;1.67;1.52;;;22.40;99.90;;;;;;4878919;29;20044;-86
2022/09/03 13:14:27;;;;;;;1.75;1.65;;;22.40;99.90;;;;;;4864419;29;20049;-85
2022/09/03 13:17:01;;;;;;;1.77;1.52;;;22.30;99.90;;;;;;4847925;29;20049;-85
2022/09/03 13:20:07;;;;;;;1.70;1.58;;;22.60;99.90;;;;;;4862664;29;20057;-84
2022/09/03 13:22:52;;;;;;;2.58;2.38;;;22.70;99.90;;;;;;4787892;29;20263;-85
2022/09/03 13:25:34;;;;;;;4.60;1.98;;;23.00;99.90;;;;;;4773825;29;20061;-83
2022/09/03 13:28:32;;;;;;;3.40;1.52;;;22.90;99.90;;;;;;4825015;29;20075;-86
2022/09/03 13:31:11;;;;;;;1.70;1.60;;;22.90;99.90;;;;;;4871019;29;20046;-85
2022/09/03 13:33:46;;;;;;;1.90;1.80;;;23.00;99.90;;;;;;4857743;29;20050;-85
2022/09/03 13:37:16;;;;;;;2.50;1.88;;;23.00;99.90;;;;;;4810848;29;20526;-86
2022/09/03 13:39:53;;;;;;;2.03;1.80;;;22.70;99.90;;;;;;4785386;29;20438;-86
2022/09/03 13:42:39;;;;;;;1.60;1.42;;;22.80;99.90;;;;;;4858400;29;20061;-86
2022/09/03 13:45:26;;;;;;;1.65;1.55;;;22.90;99.90;;;;;;4841221;29;20053;-86